Parksley, VA

9:58 AM EDT on August 26, 2016 (GMT -0400)
North Greenbush | | Change Station

Elev 30 ft 37.77 °N, 75.67 °W | Updated 5 minutes ago

Scattered Clouds
Scattered Clouds
84.0 °F
Feels Like 93 °F
N
4.2
Wind Variable Wind from SW

Today
High -- | Low -- °F
--% Chance of Precip.
Yesterday
High -- | Low -- °F
Precip. -- in
Pressure 30.07 in
Visibility 10.0 miles
Clouds Scattered Clouds 6000 ft
Scattered Clouds 6500 ft
Heat Index 93 °F
Dew Point 76 °F
Humidity 77%
Rainfall 0.00 in
Snow Depth Not available.
6:28 AM 7:39 PM
Waning Crescent, 34% visible
METAR KMFV 261335Z AUTO 26006KT 10SM SCT060 SCT065 28/22 A3007 RMK AO2 T02840223
Pressure 30.07 in
Visibility 10.0 miles
Clouds Scattered Clouds 6000 ft
Scattered Clouds 6500 ft
Heat Index 93 °F
Dew Point 76 °F
Humidity 77%
Rainfall 0.00 in
Snow Depth Not available.
6:28 AM 7:39 PM
Waning Crescent, 34% visible
METAR KMFV 261335Z AUTO 26006KT 10SM SCT060 SCT065 28/22 A3007 RMK AO2 T02840223

10-Day Weather Forecast

Almanac

Astronomy

Aug. 26, 2016 Rise Set
Actual Time
Civil Twilight
Nautical Twilight
Astronomical Twilight
Moon
Length of Visible Light
Length of Day
Tomorrow will be .
, % of the Moon is Illuminated

Today's Extremes

State Highs State Lows

Community

WunderPhotos

Upload Photos

1,935,084 photos uploaded!

WunderBlog® & News

Nearby

Air Quality

  Air Quality AQ Index Pollutant
Not available.

Snow Depth

Station Depth Elevation

Earthquake Activity

City Distance Mag. Time & Date
Minimum magnitude displayed is 2.5.

Coastal Water Temperatures

Place Temperature

Stations

Nearby Weather Stations

Station Location Temp. Windchill Dew Point Humidity Wind Precip. Elev Updated Type
                   

Watches & Warnings

There are currently no watches in effect.